createdAt,value
2022-08-18T00:02:16.289Z,12.60
2022-08-18T00:04:48.845Z,12.53
2022-08-18T00:07:19.403Z,11.17
2022-08-18T00:09:49.734Z,10.07
2022-08-18T00:12:19.669Z,12.37
2022-08-18T00:14:48.996Z,11.20
2022-08-18T00:17:18.013Z,14.23
2022-08-18T00:19:48.388Z,15.30
2022-08-18T00:22:18.187Z,13.37
2022-08-18T00:24:48.571Z,13.63
2022-08-18T00:27:21.704Z,14.97
2022-08-18T00:29:51.652Z,14.37
2022-08-18T00:32:21.673Z,16.67
2022-08-18T00:34:50.262Z,15.77
2022-08-18T00:37:19.081Z,15.20
2022-08-18T00:39:48.228Z,13.57
2022-08-18T00:42:27.064Z,15.33
2022-08-18T00:45:00.879Z,13.40
2022-08-18T00:47:41.360Z,11.97
2022-08-18T00:50:16.331Z,11.70
2022-08-18T00:52:51.015Z,11.20
2022-08-18T00:55:20.055Z,11.00
2022-08-18T00:57:50.357Z,11.00
2022-08-18T01:00:21.167Z,11.30
2022-08-18T01:02:52.368Z,11.57
2022-08-18T01:05:23.608Z,11.77
2022-08-18T01:07:52.710Z,11.67
2022-08-18T01:10:22.464Z,12.20
2022-08-18T01:12:52.089Z,11.93
2022-08-18T01:15:27.631Z,11.93
2022-08-18T01:18:15.050Z,11.40
2022-08-18T01:21:04.954Z,13.07
2022-08-18T01:23:35.115Z,14.53
2022-08-18T01:26:04.333Z,13.73
2022-08-18T01:28:34.997Z,12.73
2022-08-18T01:31:04.385Z,13.27
2022-08-18T01:33:34.272Z,13.40
2022-08-18T01:36:03.997Z,13.77
2022-08-18T01:38:33.048Z,12.20
2022-08-18T01:41:25.867Z,12.40
2022-08-18T01:43:51.789Z,13.33
2022-08-18T01:46:21.164Z,15.10
2022-08-18T01:48:50.259Z,17.77
2022-08-18T01:51:20.452Z,17.97
2022-08-18T01:54:08.329Z,17.40
2022-08-18T01:56:38.276Z,17.53
2022-08-18T01:59:07.180Z,15.97
2022-08-18T02:01:48.354Z,15.17
2022-08-18T02:04:35.214Z,14.27
2022-08-18T02:07:06.201Z,13.90
2022-08-18T02:09:35.124Z,13.03
2022-08-18T02:12:05.717Z,12.50
2022-08-18T02:14:34.708Z,13.33
2022-08-18T02:17:04.034Z,11.73
2022-08-18T02:19:34.611Z,12.80
2022-08-18T02:22:03.426Z,12.47
2022-08-18T02:24:32.142Z,18.47
2022-08-18T02:27:00.869Z,17.33
2022-08-18T02:29:31.077Z,18.23
2022-08-18T02:31:59.756Z,16.40
2022-08-18T02:34:28.353Z,14.93
2022-08-18T02:36:56.950Z,13.90
2022-08-18T02:39:25.544Z,13.13
2022-08-18T02:41:54.435Z,12.43
2022-08-18T02:44:23.164Z,12.60
2022-08-18T02:46:54.965Z,13.83
2022-08-18T02:49:23.722Z,14.57
2022-08-18T02:51:52.562Z,13.20
2022-08-18T02:54:23.073Z,12.80
2022-08-18T02:56:52.834Z,12.47
2022-08-18T02:59:24.151Z,12.67
2022-08-18T03:01:54.005Z,14.90
2022-08-18T03:04:29.421Z,15.77
2022-08-18T03:07:00.471Z,14.53
2022-08-18T03:09:29.358Z,13.43
2022-08-18T03:11:58.226Z,13.53
2022-08-18T03:14:26.837Z,13.13
2022-08-18T03:16:55.604Z,14.90
2022-08-18T03:19:28.736Z,16.53
2022-08-18T03:22:02.998Z,14.70
2022-08-18T03:24:32.894Z,14.80
2022-08-18T03:27:01.896Z,14.27
2022-08-18T03:29:32.692Z,13.83
2022-08-18T03:32:01.978Z,14.53
2022-08-18T03:34:32.206Z,13.17
2022-08-18T03:37:01.291Z,13.37
2022-08-18T03:39:30.288Z,13.47
2022-08-18T03:42:01.505Z,15.47
2022-08-18T03:44:31.755Z,18.70
2022-08-18T03:47:02.725Z,18.30
2022-08-18T03:49:33.500Z,16.67
2022-08-18T03:52:02.331Z,15.07
2022-08-18T03:54:32.522Z,14.47
2022-08-18T03:57:01.513Z,13.83
2022-08-18T03:59:31.890Z,14.83
2022-08-18T04:02:00.924Z,17.07
2022-08-18T04:04:30.131Z,14.53
2022-08-18T04:07:01.049Z,15.43
2022-08-18T04:09:31.598Z,13.43
2022-08-18T04:12:04.568Z,15.07
2022-08-18T04:14:35.573Z,13.97
2022-08-18T04:17:04.210Z,14.90
2022-08-18T04:19:34.509Z,19.17
2022-08-18T04:22:04.652Z,19.87
2022-08-18T04:24:34.365Z,17.23
2022-08-18T04:27:05.809Z,18.70
2022-08-18T04:29:34.452Z,16.33
2022-08-18T04:32:04.845Z,16.57
2022-08-18T04:34:33.982Z,16.00
2022-08-18T04:37:04.445Z,17.10
2022-08-18T04:39:33.138Z,20.10
2022-08-18T04:42:05.032Z,19.10
2022-08-18T04:44:33.722Z,20.27
2022-08-18T04:47:02.740Z,19.37
2022-08-18T04:49:32.101Z,18.87
2022-08-18T04:52:36.733Z,18.17
2022-08-18T04:55:09.017Z,21.97
2022-08-18T04:57:37.653Z,24.67
2022-08-18T05:00:08.301Z,26.80
2022-08-18T05:02:36.933Z,25.33
2022-08-18T05:05:05.685Z,29.30
2022-08-18T05:07:34.427Z,28.47
2022-08-18T05:10:03.058Z,26.67
2022-08-18T05:12:33.055Z,33.97
2022-08-18T05:15:01.644Z,34.70
2022-08-18T05:17:31.227Z,34.13
2022-08-18T05:20:01.442Z,33.10
2022-08-18T05:22:31.741Z,28.23
2022-08-18T05:25:00.989Z,31.47
2022-08-18T05:27:35.150Z,35.27
2022-08-18T05:30:04.084Z,36.40
2022-08-18T05:32:46.992Z,35.10
2022-08-18T05:35:22.215Z,33.07
2022-08-18T05:37:57.055Z,38.33
2022-08-18T05:40:25.900Z,36.30
2022-08-18T05:42:57.360Z,31.63
2022-08-18T05:45:26.194Z,31.97
2022-08-18T05:47:59.862Z,32.57
2022-08-18T05:50:29.560Z,32.73
2022-08-18T05:52:59.268Z,34.87
2022-08-18T05:55:49.124Z,31.87
2022-08-18T05:58:20.861Z,31.90
2022-08-18T06:00:58.813Z,31.70
2022-08-18T06:03:29.800Z,29.37
2022-08-18T06:06:15.185Z,29.70
2022-08-18T06:08:45.452Z,30.93
2022-08-18T06:11:22.528Z,26.63
2022-08-18T06:13:59.646Z,26.50
2022-08-18T06:16:39.182Z,26.03
2022-08-18T06:19:19.497Z,26.30
2022-08-18T06:21:52.570Z,27.23
2022-08-18T06:24:24.915Z,24.70
2022-08-18T06:26:56.974Z,27.73
2022-08-18T06:29:34.410Z,26.93
2022-08-18T06:32:11.366Z,25.57
2022-08-18T06:34:43.774Z,28.23
2022-08-18T06:37:14.558Z,22.60
2022-08-18T06:39:47.030Z,24.80
2022-08-18T06:42:18.248Z,23.97
2022-08-18T06:44:50.449Z,23.13
2022-08-18T06:47:26.147Z,22.30
2022-08-18T06:50:02.734Z,23.17
2022-08-18T06:52:32.253Z,21.97
2022-08-18T06:55:02.318Z,30.73
2022-08-18T06:57:33.301Z,32.13
2022-08-18T07:00:07.679Z,29.93
2022-08-18T07:02:41.981Z,32.90
2022-08-18T07:05:19.185Z,31.30
2022-08-18T07:07:48.593Z,26.93
2022-08-18T07:10:30.791Z,29.90
2022-08-18T07:13:23.369Z,32.00
2022-08-18T07:15:53.814Z,27.23
2022-08-18T07:18:26.996Z,28.90
2022-08-18T07:20:57.021Z,23.37
2022-08-18T07:23:28.496Z,22.03
2022-08-18T07:26:05.268Z,19.53
2022-08-18T07:28:36.621Z,23.83
2022-08-18T07:31:17.257Z,25.37
2022-08-18T07:33:49.570Z,30.23
2022-08-18T07:36:19.297Z,25.40
2022-08-18T07:38:50.180Z,21.60
2022-08-18T07:41:20.920Z,22.63
2022-08-18T07:43:57.296Z,25.33
2022-08-18T07:46:30.325Z,27.00
2022-08-18T07:48:59.919Z,23.07
2022-08-18T07:51:33.870Z,25.13
2022-08-18T07:54:25.229Z,28.60
2022-08-18T07:57:02.983Z,27.97
2022-08-18T07:59:34.739Z,27.20
2022-08-18T08:02:13.851Z,27.50
2022-08-18T08:04:44.987Z,25.37
2022-08-18T08:07:25.188Z,27.93
2022-08-18T08:10:03.204Z,23.80
2022-08-18T08:12:38.042Z,23.40
2022-08-18T08:15:13.962Z,24.23
2022-08-18T08:17:48.317Z,20.30
2022-08-18T08:20:24.036Z,20.03
2022-08-18T08:23:09.328Z,21.40
2022-08-18T08:25:46.918Z,21.80
2022-08-18T08:28:22.930Z,21.50
2022-08-18T08:31:09.032Z,17.07
2022-08-18T08:33:49.909Z,20.10
2022-08-18T08:36:21.363Z,17.97
2022-08-18T08:38:52.674Z,16.60
2022-08-18T08:41:25.689Z,17.77
2022-08-18T08:43:57.385Z,20.67
2022-08-18T08:46:29.894Z,19.40
2022-08-18T08:49:03.772Z,20.67
2022-08-18T08:51:36.458Z,21.37
2022-08-18T08:54:08.107Z,21.60
2022-08-18T08:56:38.263Z,18.30
2022-08-18T08:59:09.556Z,17.97
2022-08-18T09:01:42.674Z,16.30
2022-08-18T09:04:18.955Z,16.00
2022-08-18T09:06:50.722Z,15.50
2022-08-18T09:09:27.221Z,15.13
2022-08-18T09:12:07.655Z,19.07
2022-08-18T09:15:03.299Z,16.80
2022-08-18T09:17:47.410Z,20.03
2022-08-18T09:20:28.828Z,21.30
2022-08-18T09:23:01.208Z,20.50
2022-08-18T09:25:34.097Z,22.07
2022-08-18T09:28:12.218Z,20.33
2022-08-18T09:30:43.058Z,22.90
2022-08-18T09:39:38.800Z,20.23
2022-08-18T09:42:10.824Z,23.00
2022-08-18T09:45:01.997Z,18.83
2022-08-18T09:47:58.970Z,20.03
2022-08-18T09:50:38.625Z,22.23
2022-08-18T09:53:33.217Z,22.73
2022-08-18T09:56:05.415Z,20.73
2022-08-18T09:59:10.851Z,22.83
2022-08-18T10:01:54.269Z,21.90
2022-08-18T10:04:29.677Z,19.43
2022-08-18T10:07:14.391Z,20.40
2022-08-18T10:09:49.522Z,20.57
2022-08-18T10:12:32.888Z,18.40
2022-08-18T10:15:27.021Z,21.27
2022-08-18T10:18:12.049Z,18.07
2022-08-18T10:20:44.015Z,23.43
2022-08-18T10:23:13.446Z,21.57
2022-08-18T10:25:46.323Z,19.97
2022-08-18T10:28:42.024Z,24.60
2022-08-18T10:31:13.142Z,20.70
2022-08-18T10:33:59.179Z,23.67
2022-08-18T10:36:48.538Z,23.40
2022-08-18T10:39:19.172Z,22.23
2022-08-18T10:41:56.649Z,24.50
2022-08-18T10:44:29.594Z,26.50
2022-08-18T10:47:01.906Z,24.70
2022-08-18T10:49:32.235Z,23.73
2022-08-18T10:52:20.704Z,21.50
2022-08-18T10:55:10.306Z,19.33
2022-08-18T10:57:44.988Z,26.00
2022-08-18T11:00:17.421Z,24.50
2022-08-18T11:03:01.830Z,24.37
2022-08-18T11:05:32.926Z,23.53
2022-08-18T11:08:03.165Z,22.73
2022-08-18T11:11:06.581Z,23.43
2022-08-18T11:13:51.482Z,23.67
2022-08-18T11:16:27.324Z,21.27
2022-08-18T11:19:00.289Z,23.00
2022-08-18T11:21:41.669Z,21.57
2022-08-18T11:24:13.783Z,18.63
2022-08-18T11:26:43.930Z,19.37
2022-08-18T11:29:23.563Z,16.73
2022-08-18T11:31:53.652Z,16.13
2022-08-18T11:34:32.168Z,16.93
2022-08-18T11:37:03.144Z,18.43
2022-08-18T11:39:44.076Z,17.90
2022-08-18T11:42:21.793Z,18.37
2022-08-18T11:45:07.672Z,16.73
2022-08-18T11:47:39.740Z,16.57
2022-08-18T11:50:11.726Z,17.37
2022-08-18T11:52:53.970Z,15.53
2022-08-18T11:55:25.190Z,16.53
2022-08-18T11:57:56.219Z,16.67
2022-08-18T12:03:45.485Z,16.93
2022-08-18T12:06:27.037Z,16.47
2022-08-18T12:08:59.106Z,16.17
2022-08-18T12:11:29.406Z,16.43
2022-08-18T12:14:01.656Z,14.53
2022-08-18T12:16:50.722Z,15.63
2022-08-18T12:19:22.235Z,16.37
2022-08-18T12:21:56.029Z,17.07
2022-08-18T12:24:36.931Z,16.47
2022-08-18T12:29:58.247Z,15.73
2022-08-18T12:35:16.792Z,17.30
2022-08-18T12:38:04.965Z,15.87
2022-08-18T12:40:41.141Z,16.40
2022-08-18T12:43:09.753Z,16.10
2022-08-18T12:45:39.452Z,15.87
2022-08-18T12:48:10.409Z,15.93
2022-08-18T12:50:49.684Z,15.00
2022-08-18T12:53:29.609Z,14.40
2022-08-18T12:56:07.336Z,12.80
2022-08-18T12:58:37.410Z,12.07
2022-08-18T13:01:09.412Z,15.17
2022-08-18T13:03:38.976Z,15.07
2022-08-18T13:06:11.467Z,13.83
2022-08-18T13:08:48.094Z,14.03
2022-08-18T13:11:23.447Z,14.20
2022-08-18T13:13:56.074Z,13.33
2022-08-18T13:16:38.545Z,13.33
2022-08-18T13:19:10.852Z,14.53
2022-08-18T13:21:42.877Z,13.87
2022-08-18T13:24:13.405Z,14.43
2022-08-18T13:26:46.228Z,14.97
2022-08-18T13:29:15.378Z,14.53
2022-08-18T13:31:56.098Z,14.57
2022-08-18T13:34:29.737Z,13.83
2022-08-18T13:36:58.992Z,15.07
2022-08-18T13:39:31.381Z,14.40
2022-08-18T13:42:26.866Z,14.37
2022-08-18T13:44:53.314Z,14.67
2022-08-18T13:47:23.466Z,15.43
2022-08-18T13:49:58.183Z,14.80
2022-08-18T13:52:35.628Z,13.87
2022-08-18T13:55:11.704Z,14.83
2022-08-18T13:57:48.117Z,15.00
2022-08-18T14:00:29.623Z,14.27
2022-08-18T14:03:00.597Z,11.60
2022-08-18T14:05:36.506Z,9.87
2022-08-18T14:08:19.913Z,10.70
2022-08-18T14:10:51.333Z,10.77
2022-08-18T14:13:24.885Z,10.20
2022-08-18T14:15:54.988Z,9.50
2022-08-18T14:18:29.050Z,12.00
2022-08-18T14:21:23.210Z,10.77
2022-08-18T14:24:10.706Z,11.40
2022-08-18T14:26:51.034Z,11.47
2022-08-18T14:29:45.496Z,10.33
2022-08-18T14:32:09.412Z,9.90
2022-08-18T14:34:50.867Z,10.37
2022-08-18T14:37:20.059Z,8.57
2022-08-18T14:39:50.428Z,9.20
2022-08-18T14:42:41.371Z,9.03
2022-08-18T14:45:17.499Z,9.23
2022-08-18T14:47:56.679Z,8.50
2022-08-18T14:50:26.706Z,9.10
2022-08-18T14:52:55.317Z,9.13
2022-08-18T14:55:24.005Z,8.67
2022-08-18T14:57:54.608Z,6.10
2022-08-18T15:00:24.201Z,5.20
2022-08-18T15:02:53.185Z,5.17
2022-08-18T15:05:24.767Z,4.90
2022-08-18T15:07:54.160Z,5.30
2022-08-18T15:10:23.642Z,6.10
2022-08-18T15:12:59.645Z,5.67
2022-08-18T15:15:42.215Z,5.10
2022-08-18T15:18:22.729Z,4.97
2022-08-18T15:21:10.256Z,5.80
2022-08-18T15:24:19.587Z,5.20
2022-08-18T15:26:51.541Z,6.00
2022-08-18T15:29:22.588Z,6.90
2022-08-18T15:32:02.157Z,6.67
2022-08-18T15:34:47.381Z,5.80
2022-08-18T15:37:24.433Z,5.03
2022-08-18T15:40:00.912Z,6.13
2022-08-18T15:42:31.313Z,5.40
2022-08-18T15:45:12.054Z,5.60
2022-08-18T15:47:42.592Z,5.20
2022-08-18T15:50:25.581Z,5.67
2022-08-18T15:52:56.053Z,5.10
2022-08-18T15:55:25.105Z,5.13
2022-08-18T15:57:58.157Z,6.13
2022-08-18T16:00:29.709Z,5.20
2022-08-18T16:02:59.941Z,4.50
2022-08-18T16:05:30.442Z,4.60
2022-08-18T16:07:59.877Z,4.80
2022-08-18T16:10:30.025Z,5.10
2022-08-18T16:12:59.097Z,4.97
2022-08-18T16:15:34.061Z,4.23
2022-08-18T16:18:05.887Z,4.53
2022-08-18T16:20:34.533Z,5.10
2022-08-18T16:23:03.308Z,4.70
2022-08-18T16:25:31.899Z,4.70
2022-08-18T16:28:01.014Z,4.90
2022-08-18T16:30:32.577Z,4.20
2022-08-18T16:33:02.716Z,4.10
2022-08-18T16:35:31.922Z,4.20
2022-08-18T16:38:04.367Z,3.67
2022-08-18T16:40:33.177Z,3.80
2022-08-18T16:43:01.768Z,4.00
2022-08-18T16:45:33.356Z,3.53
2022-08-18T16:48:02.236Z,3.87
2022-08-18T16:50:31.388Z,3.83
2022-08-18T16:53:00.040Z,3.67
2022-08-18T16:55:28.774Z,4.27
2022-08-18T16:58:17.413Z,3.43
2022-08-18T17:01:05.241Z,3.33
2022-08-18T17:03:51.692Z,3.27
2022-08-18T17:06:20.671Z,4.00
2022-08-18T17:08:49.270Z,3.47
2022-08-18T17:11:19.560Z,3.10
2022-08-18T17:13:48.914Z,3.43
2022-08-18T17:16:19.127Z,3.93
2022-08-18T17:18:48.075Z,4.30
2022-08-18T17:21:18.319Z,3.70
2022-08-18T17:23:47.124Z,3.60
2022-08-18T17:26:19.181Z,3.70
2022-08-18T17:28:50.793Z,3.17
2022-08-18T17:31:24.323Z,3.67
2022-08-18T17:33:53.894Z,3.70
2022-08-18T17:36:23.509Z,3.57
2022-08-18T17:38:57.167Z,3.80
2022-08-18T17:41:26.252Z,3.47
2022-08-18T17:43:57.030Z,3.27
2022-08-18T17:46:30.153Z,3.60
2022-08-18T17:49:01.592Z,3.57
2022-08-18T17:51:34.283Z,3.13
2022-08-18T17:54:06.204Z,3.43
2022-08-18T17:56:38.512Z,3.00
2022-08-18T17:59:45.443Z,3.20
2022-08-18T18:02:28.815Z,3.20
2022-08-18T18:04:59.160Z,3.10
2022-08-18T18:07:28.825Z,2.93
2022-08-18T18:09:59.423Z,3.20
2022-08-18T18:12:29.647Z,2.37
2022-08-18T18:14:59.045Z,2.87
2022-08-18T18:17:30.400Z,3.10
2022-08-18T18:20:12.873Z,2.90
2022-08-18T18:22:46.227Z,3.57
2022-08-18T18:25:34.603Z,3.53
2022-08-18T18:28:03.913Z,3.40
2022-08-18T18:30:33.366Z,3.77
2022-08-18T18:33:04.994Z,4.33
2022-08-18T18:35:54.361Z,4.10
2022-08-18T18:38:27.949Z,3.50
2022-08-18T18:40:58.852Z,3.47
2022-08-18T18:43:28.944Z,3.73
2022-08-18T18:46:07.881Z,3.50
2022-08-18T18:48:51.249Z,3.47
2022-08-18T18:51:33.581Z,3.37
2022-08-18T18:54:10.352Z,3.33
2022-08-18T18:56:40.993Z,3.20
2022-08-18T18:59:19.046Z,3.60
2022-08-18T19:01:51.670Z,3.57
2022-08-18T19:04:26.102Z,3.70
2022-08-18T19:06:59.828Z,4.00
2022-08-18T19:09:33.195Z,3.50
2022-08-18T19:12:07.089Z,4.07
2022-08-18T19:14:38.280Z,3.93
2022-08-18T19:17:14.305Z,4.10
2022-08-18T19:19:46.196Z,3.80
2022-08-18T19:22:19.117Z,4.10
2022-08-18T19:24:52.358Z,4.33
2022-08-18T19:27:25.567Z,3.90
2022-08-18T19:29:56.059Z,3.90
2022-08-18T19:32:28.221Z,4.40
2022-08-18T19:34:58.548Z,4.13
2022-08-18T19:37:32.296Z,4.57
2022-08-18T19:40:04.430Z,4.90
2022-08-18T19:42:35.638Z,5.00
2022-08-18T19:45:16.519Z,4.80
2022-08-18T19:47:49.048Z,5.20
2022-08-18T19:50:33.485Z,5.80
2022-08-18T19:53:19.715Z,5.40
2022-08-18T19:56:01.509Z,5.10
2022-08-18T19:58:49.150Z,5.27
2022-08-18T20:01:36.770Z,5.07
2022-08-18T20:04:13.307Z,4.70
2022-08-18T20:06:52.808Z,4.90
2022-08-18T20:09:39.541Z,5.67
2022-08-18T20:12:16.021Z,5.77
2022-08-18T20:14:44.962Z,5.63
2022-08-18T20:17:16.691Z,5.50
2022-08-18T20:19:50.671Z,4.90
2022-08-18T20:22:34.988Z,6.20
2022-08-18T20:25:11.247Z,5.70
2022-08-18T20:27:41.300Z,5.00
2022-08-18T20:30:30.677Z,4.93
2022-08-18T20:33:19.649Z,4.93
2022-08-18T20:35:52.857Z,5.27
2022-08-18T20:38:34.673Z,5.23
2022-08-18T20:41:18.163Z,5.63
2022-08-18T20:43:47.707Z,6.80
2022-08-18T20:46:23.539Z,6.33
2022-08-18T20:49:06.020Z,6.43
2022-08-18T20:51:37.444Z,5.80
2022-08-18T20:54:13.632Z,5.97
2022-08-18T20:56:46.282Z,5.93
2022-08-18T20:59:18.406Z,5.83
2022-08-18T21:01:54.962Z,6.63
2022-08-18T21:04:42.921Z,6.32
2022-08-18T21:07:17.584Z,6.93
2022-08-18T21:09:52.369Z,6.70
2022-08-18T21:12:28.620Z,6.37
2022-08-18T21:14:59.617Z,7.33
2022-08-18T21:17:30.388Z,6.80
2022-08-18T21:20:03.037Z,6.57
2022-08-18T21:22:32.388Z,6.37
2022-08-18T21:25:03.379Z,6.27
2022-08-18T21:27:33.865Z,5.97
2022-08-18T21:30:03.598Z,6.43
2022-08-18T21:32:34.072Z,6.30
2022-08-18T21:35:08.020Z,5.67
2022-08-18T21:37:42.499Z,5.63
2022-08-18T21:40:13.528Z,6.33
2022-08-18T21:42:47.032Z,6.70
2022-08-18T21:45:17.458Z,6.40
2022-08-18T21:47:50.543Z,5.80
2022-08-18T21:50:23.039Z,5.67
2022-08-18T21:52:53.467Z,5.43
2022-08-18T21:55:26.896Z,5.50
2022-08-18T21:58:03.436Z,5.50
2022-08-18T22:00:33.826Z,5.63
2022-08-18T22:03:11.726Z,5.17
2022-08-18T22:05:57.798Z,5.53
2022-08-18T22:08:29.857Z,6.37
2022-08-18T22:11:59.696Z,6.00
2022-08-18T22:14:36.211Z,5.87
2022-08-18T22:17:26.996Z,5.77
2022-08-18T22:19:56.073Z,5.87
2022-08-18T22:22:42.776Z,6.47
2022-08-18T22:25:13.105Z,6.97
2022-08-18T22:27:50.297Z,6.37
2022-08-18T22:30:19.039Z,6.10
2022-08-18T22:32:47.833Z,5.80
2022-08-18T22:35:16.555Z,6.97
2022-08-18T22:37:50.542Z,6.37
2022-08-18T22:40:21.593Z,6.37
2022-08-18T22:42:52.177Z,6.37
2022-08-18T22:45:21.279Z,6.03
2022-08-18T22:47:49.880Z,6.27
2022-08-18T22:50:18.581Z,5.87
2022-08-18T22:52:49.429Z,5.30
2022-08-18T22:55:23.841Z,5.80
2022-08-18T22:57:56.281Z,6.40
2022-08-18T23:00:26.211Z,6.77
2022-08-18T23:02:55.134Z,6.30
2022-08-18T23:05:24.684Z,6.07
2022-08-18T23:07:53.304Z,6.10
2022-08-18T23:10:22.045Z,7.13
2022-08-18T23:12:51.353Z,6.70
2022-08-18T23:15:22.846Z,6.53
2022-08-18T23:17:51.969Z,6.43
2022-08-18T23:20:20.656Z,6.63
2022-08-18T23:22:55.233Z,6.33
2022-08-18T23:25:23.850Z,6.77
2022-08-18T23:27:55.386Z,6.40
2022-08-18T23:30:30.307Z,5.70
2022-08-18T23:32:59.164Z,6.10
2022-08-18T23:35:27.994Z,6.20
2022-08-18T23:37:56.640Z,6.53
2022-08-18T23:40:25.558Z,7.93
2022-08-18T23:42:54.321Z,7.40
2022-08-18T23:45:23.054Z,6.63
2022-08-18T23:47:53.273Z,6.63
2022-08-18T23:50:27.072Z,6.50
2022-08-18T23:52:57.559Z,6.70
2022-08-18T23:55:26.556Z,5.97
2022-08-18T23:57:55.173Z,6.40
